메인 페이지
METAR-TAF:

METAR-TAF

공항 :

시몬 볼리바르 국제공항

카라카스, 베네수엘라

위도: 10-36N, 경도: 066-59W, 고도: 43m

현재 날씨관측

예보는 41분 전, 23:02시(UTC)에 발표되었습니다.
10kt
온도
기압 1013 hPa

METAR: SVMI 012302Z AUTO 08010KT NCD ///// Q1013

시각: 19:43 (23:43 UTC)

예보

예보는 1 시간 43분 전, 22:00시(UTC)에 발표되었습니다.
예보 대상 시간: 02일 00시부터 03일 00시까지 (UTC)
4kt
시정 10km 이상
고도 1600ft 상공 구름 보통
고도 10000ft 상공 구름 보통
전환 중
02일 00시부터 02일 04시까지 (UTC)
6kt
시정 10km 이상
고도 1600ft 상공 구름 많음

TAF: SVMI 012200Z 0200/0300 09004KT 9999 SCT016 SCT100 TX28/19Z TN23/09Z BECMG 0200/0204 09006KT 9999 BKN016

4,000개 이상의 공항 관측 자료 및 예보 (METAR 및 TAF 보고).

지도상에서 검색 가능한 기상관측소가 노란 점과 빨간 점으로 표시되어 있습니다.

기상관측소 명을 보려면 표시 위로 마우스를 이동하세요.

날씨 관측과 예보를 보려면 클릭하세요.

지도 변경 : 확대하려면 엑스 표시가 있는 녹색 버튼, 축소하려면 빼기 표시가 있는 녹색 버튼, 다음 페이지의 지도를 보려면 녹색 화살표를 클릭하세요.


METAR-TAF: